This is the latest recevied weather packets stored in our database for station/object KC3AWA. If no packets are shown the sender has not sent any weather packets the latest 10 day(s).
| Time | Temp. | Humidity | Pressure | Rain* | Wind** | Luminosity | Snow |
|---|---|---|---|---|---|---|---|
| 1777830301 | 14.44° C | 37% | 1015.2 hPa | 0 mm | - | 938 W/m² | - |
| 1777829996 | 13.89° C | 42% | 1015.4 hPa | 0 mm | - | 959 W/m² | - |
| 1777829692 | 13.33° C | 39% | 1015.5 hPa | 0 mm | - | 937 W/m² | - |
| 1777829388 | 13.89° C | 40% | 1015.4 hPa | 0 mm | - | 905 W/m² | - |
| 1777829086 | 13.33° C | 43% | 1015.4 hPa | 0 mm | - | 862 W/m² | - |
| 1777828782 | 12.22° C | 44% | 1015.4 hPa | 0 mm | - | 865 W/m² | - |
| 1777828479 | 13.33° C | 39% | 1015.6 hPa | 0 mm | - | 225 W/m² | - |
| 1777828177 | 13.33° C | 37% | 1015.8 hPa | 0 mm | - | 922 W/m² | - |
| 1777827873 | 12.78° C | 40% | 1015.6 hPa | 0 mm | - | 871 W/m² | - |
| 1777827570 | 12.78° C | 38% | 1016.1 hPa | 0 mm | - | 433 W/m² | - |
| 1777827268 | 12.78° C | 39% | 1015.8 hPa | 0 mm | - | 827 W/m² | - |
| 1777826963 | 12.78° C | 39% | 1015.7 hPa | 0 mm | - | 756 W/m² | - |
| 1777826661 | 13.33° C | 39% | 1015.7 hPa | 0 mm | - | 844 W/m² | - |
| 1777826357 | 11.67° C | 43% | 1015.7 hPa | 0 mm | - | 846 W/m² | - |
| 1777826055 | 12.78° C | 39% | 1015.8 hPa | 0 mm | - | 837 W/m² | - |
| 1777825751 | 11.67° C | 41% | 1016.2 hPa | 0 mm | - | 874 W/m² | - |
| 1777825449 | 11.67° C | 42% | 1016.3 hPa | 0 mm | - | 861 W/m² | - |
| 1777825146 | 12.22° C | 41% | 1016.3 hPa | 0 mm | - | 649 W/m² | - |
| 1777824842 | 10.56° C | 41% | 1016.3 hPa | 0 mm | - | 944 W/m² | - |
| 1777824539 | 11.11° C | 40% | 1016.5 hPa | 0 mm | - | 335 W/m² | - |
| 1777824235 | 11.67° C | 39% | 1016.6 hPa | 0 mm | - | 271 W/m² | - |
| 1777823931 | 12.22° C | 38% | 1016.3 hPa | 0 mm | - | 376 W/m² | - |
| 1777823629 | 11.67° C | 40% | 1016.4 hPa | 0 mm | - | 719 W/m² | - |
| 1777823325 | 11.67° C | 37% | 1016.4 hPa | 0 mm | - | 658 W/m² | - |
| 1777823023 | 11.11° C | 41% | 1016.6 hPa | 0 mm | - | 761 W/m² | - |
* Rain latest hour (hover to see other rain measurements)
** Current wind speed in m/s (hover to see current wind gust speed)